createdAt,value
2023-02-13T00:01:57.527Z,3.97
2023-02-13T00:04:28.831Z,6.03
2023-02-13T00:06:57.567Z,6.13
2023-02-13T00:09:26.188Z,4.47
2023-02-13T00:11:58.026Z,2.60
2023-02-13T00:14:29.024Z,3.73
2023-02-13T00:16:57.030Z,6.67
2023-02-13T00:19:25.134Z,2.63
2023-02-13T00:21:53.593Z,3.53
2023-02-13T00:24:21.980Z,4.30
2023-02-13T00:26:52.665Z,4.17
2023-02-13T00:29:22.937Z,9.87
2023-02-13T00:31:51.325Z,4.83
2023-02-13T00:34:20.978Z,7.97
2023-02-13T00:36:49.387Z,4.73
2023-02-13T00:39:17.727Z,4.83
2023-02-13T00:41:46.683Z,5.60
2023-02-13T00:44:17.426Z,4.20
2023-02-13T00:46:46.179Z,4.43
2023-02-13T00:49:14.623Z,4.23
2023-02-13T00:51:42.768Z,4.00
2023-02-13T00:54:11.125Z,3.47
2023-02-13T00:56:59.688Z,4.47
2023-02-13T00:59:27.916Z,3.00
2023-02-13T01:01:57.792Z,5.37
2023-02-13T01:04:26.426Z,5.20
2023-02-13T01:06:57.514Z,4.07
2023-02-13T01:09:25.851Z,5.83
2023-02-13T01:11:54.069Z,2.57
2023-02-13T01:14:22.245Z,5.13
2023-02-13T01:17:01.008Z,6.37
2023-02-13T01:19:29.259Z,2.27
2023-02-13T01:21:57.495Z,3.33
2023-02-13T01:24:25.670Z,3.53
2023-02-13T01:26:53.667Z,3.23
2023-02-13T01:29:21.710Z,4.60
2023-02-13T01:31:53.616Z,3.87
2023-02-13T01:34:21.540Z,5.70
2023-02-13T01:36:54.888Z,5.00
2023-02-13T01:39:23.267Z,4.60
2023-02-13T01:41:51.523Z,7.37
2023-02-13T01:44:45.555Z,4.53
2023-02-13T01:47:33.236Z,4.27
2023-02-13T01:50:23.438Z,4.20
2023-02-13T01:53:14.735Z,4.03
2023-02-13T01:56:05.895Z,4.10
2023-02-13T01:58:36.700Z,3.93
2023-02-13T02:01:06.450Z,6.50
2023-02-13T02:03:51.958Z,4.93
2023-02-13T02:06:26.610Z,5.17
2023-02-13T02:09:02.820Z,4.83
2023-02-13T02:11:43.608Z,4.63
2023-02-13T02:14:12.391Z,7.57
2023-02-13T02:16:41.064Z,7.50
2023-02-13T02:19:32.430Z,10.47
2023-02-13T02:22:25.220Z,10.13
2023-02-13T02:25:13.999Z,9.83
2023-02-13T02:27:54.179Z,8.87
2023-02-13T02:31:01.185Z,8.23
2023-02-13T02:33:42.472Z,6.73
2023-02-13T02:36:29.165Z,10.20
2023-02-13T02:39:03.230Z,8.67
2023-02-13T02:42:09.492Z,9.20
2023-02-13T02:44:47.085Z,11.10
2023-02-13T02:47:43.165Z,8.43
2023-02-13T02:50:27.481Z,6.17
2023-02-13T02:53:06.836Z,7.40
2023-02-13T02:55:40.931Z,4.60
2023-02-13T02:58:33.191Z,6.30
2023-02-13T03:01:20.880Z,7.77
2023-02-13T03:04:10.714Z,7.37
2023-02-13T03:06:58.724Z,9.10
2023-02-13T03:09:51.009Z,9.93
2023-02-13T03:12:43.069Z,5.87
2023-02-13T03:15:11.735Z,7.43
2023-02-13T03:17:59.331Z,8.97
2023-02-13T03:20:55.581Z,11.90
2023-02-13T03:23:31.209Z,5.13
2023-02-13T03:26:50.875Z,11.70
2023-02-13T03:30:07.989Z,13.30
2023-02-13T03:32:52.425Z,8.87
2023-02-13T03:36:01.290Z,8.10
2023-02-13T03:38:36.876Z,12.67
2023-02-13T03:41:20.608Z,8.87
2023-02-13T03:44:14.633Z,5.50
2023-02-13T03:46:46.366Z,7.93
2023-02-13T03:49:51.130Z,10.00
2023-02-13T03:52:24.698Z,5.97
2023-02-13T03:55:20.308Z,10.90
2023-02-13T03:58:07.961Z,8.50
2023-02-13T04:00:41.699Z,9.13
2023-02-13T04:03:36.151Z,10.30
2023-02-13T04:06:11.473Z,10.13
2023-02-13T04:08:40.466Z,9.13
2023-02-13T04:11:16.058Z,11.00
2023-02-13T04:13:56.109Z,9.70
2023-02-13T04:16:30.399Z,12.70
2023-02-13T04:18:59.638Z,10.37
2023-02-13T04:21:28.135Z,9.70
2023-02-13T04:23:56.378Z,11.83
2023-02-13T04:26:24.709Z,11.53
2023-02-13T04:28:52.713Z,8.07
2023-02-13T04:31:20.796Z,11.20
2023-02-13T04:33:49.034Z,12.07
2023-02-13T04:36:18.213Z,10.77
2023-02-13T04:38:46.495Z,9.63
2023-02-13T04:41:14.585Z,8.17
2023-02-13T04:43:43.698Z,7.20
2023-02-13T04:46:11.786Z,9.17
2023-02-13T04:48:41.355Z,8.73
2023-02-13T04:51:09.409Z,8.07
2023-02-13T04:53:38.069Z,7.33
2023-02-13T04:56:06.744Z,8.17
2023-02-13T04:58:35.066Z,11.40
2023-02-13T05:01:03.154Z,10.60
2023-02-13T05:03:31.347Z,7.23
2023-02-13T05:05:59.551Z,8.13
2023-02-13T05:08:30.392Z,7.73
2023-02-13T05:10:59.003Z,7.03
2023-02-13T05:13:33.817Z,8.50
2023-02-13T05:16:02.504Z,7.40
2023-02-13T05:18:31.130Z,9.43
2023-02-13T05:21:18.064Z,11.23
2023-02-13T05:23:46.641Z,7.20
2023-02-13T05:26:15.235Z,8.67
2023-02-13T05:29:02.084Z,7.67
2023-02-13T05:31:30.138Z,8.33
2023-02-13T05:33:58.440Z,9.67
2023-02-13T05:36:26.494Z,9.10
2023-02-13T05:38:55.848Z,11.00
2023-02-13T05:41:24.686Z,12.70
2023-02-13T05:43:52.668Z,11.70
2023-02-13T05:46:20.843Z,11.67
2023-02-13T05:48:52.303Z,12.20
2023-02-13T05:51:20.951Z,11.63
2023-02-13T05:53:52.070Z,13.40
2023-02-13T05:56:21.555Z,9.93
2023-02-13T05:58:53.163Z,9.53
2023-02-13T06:01:22.122Z,9.10
2023-02-13T06:03:50.951Z,10.43
2023-02-13T06:06:21.694Z,8.63
2023-02-13T06:08:50.233Z,11.77
2023-02-13T06:11:21.786Z,9.63
2023-02-13T06:13:50.270Z,8.47
2023-02-13T06:16:18.836Z,9.20
2023-02-13T06:18:47.263Z,11.63
2023-02-13T06:21:15.284Z,6.97
2023-02-13T06:23:47.001Z,10.73
2023-02-13T06:26:15.304Z,9.67
2023-02-13T06:28:44.052Z,8.50
2023-02-13T06:31:12.742Z,10.07
2023-02-13T06:33:41.578Z,6.93
2023-02-13T06:36:10.164Z,7.10
2023-02-13T06:38:38.709Z,12.97
2023-02-13T06:41:07.344Z,6.97
2023-02-13T06:43:35.190Z,10.33
2023-02-13T06:46:07.674Z,7.23
2023-02-13T06:48:38.513Z,11.50
2023-02-13T06:51:06.734Z,9.93
2023-02-13T06:53:34.916Z,11.73
2023-02-13T06:56:08.677Z,8.10
2023-02-13T06:58:37.319Z,9.53
2023-02-13T07:01:05.832Z,10.40
2023-02-13T07:03:33.825Z,8.10
2023-02-13T07:06:02.460Z,10.87
2023-02-13T07:08:31.332Z,9.40
2023-02-13T07:10:59.854Z,17.80
2023-02-13T07:13:28.826Z,9.53
2023-02-13T07:16:01.549Z,9.00
2023-02-13T07:18:30.249Z,8.80
2023-02-13T07:20:59.323Z,12.20
2023-02-13T07:23:27.908Z,12.10
2023-02-13T07:25:55.691Z,9.97
2023-02-13T07:28:28.514Z,6.17
2023-02-13T07:30:57.298Z,9.13
2023-02-13T07:33:27.838Z,12.10
2023-02-13T07:35:56.075Z,15.10
2023-02-13T07:38:24.763Z,10.17
2023-02-13T07:40:53.076Z,8.73
2023-02-13T07:43:21.498Z,9.53
2023-02-13T07:45:52.539Z,8.67
2023-02-13T07:48:25.525Z,10.90
2023-02-13T07:51:00.775Z,11.60
2023-02-13T07:53:30.781Z,9.97
2023-02-13T07:56:02.549Z,14.07
2023-02-13T07:58:30.922Z,8.30
2023-02-13T08:00:59.862Z,13.87
2023-02-13T08:03:28.533Z,10.07
2023-02-13T08:05:56.982Z,10.00
2023-02-13T08:08:29.707Z,6.37
2023-02-13T08:11:23.250Z,7.57
2023-02-13T08:13:51.178Z,9.93
2023-02-13T08:16:21.183Z,6.60
2023-02-13T08:18:49.943Z,7.07
2023-02-13T08:21:20.531Z,8.27
2023-02-13T08:23:52.322Z,7.07
2023-02-13T08:26:21.400Z,9.73
2023-02-13T08:28:49.960Z,21.30
2023-02-13T08:31:18.194Z,10.33
2023-02-13T08:33:47.383Z,12.40
2023-02-13T08:36:15.817Z,12.88
2023-02-13T08:38:43.824Z,13.43
2023-02-13T08:41:11.950Z,10.87
2023-02-13T08:43:40.640Z,10.53
2023-02-13T08:46:15.086Z,20.10
2023-02-13T08:48:43.441Z,8.10
2023-02-13T08:51:16.107Z,15.88
2023-02-13T08:53:44.378Z,13.87
2023-02-13T08:56:15.990Z,13.27
2023-02-13T08:58:44.821Z,20.07
2023-02-13T09:01:18.099Z,22.53
2023-02-13T09:03:46.687Z,35.73
2023-02-13T09:06:17.991Z,37.50
2023-02-13T09:08:46.842Z,51.13
2023-02-13T09:11:18.129Z,44.57
2023-02-13T09:13:48.933Z,36.47
2023-02-13T09:16:17.707Z,27.80
2023-02-13T09:18:48.855Z,21.87
2023-02-13T09:21:17.599Z,18.73
2023-02-13T09:23:46.162Z,16.77
2023-02-13T09:26:15.991Z,26.97
2023-02-13T09:28:44.857Z,24.83
2023-02-13T09:31:17.907Z,19.57
2023-02-13T09:33:48.758Z,20.10
2023-02-13T09:36:22.876Z,10.80
2023-02-13T09:38:58.180Z,10.87
2023-02-13T09:41:40.267Z,9.00
2023-02-13T09:44:34.298Z,15.13
2023-02-13T09:47:19.127Z,15.23
2023-02-13T09:49:56.397Z,12.87
2023-02-13T09:52:26.782Z,9.77
2023-02-13T09:54:55.821Z,26.67
2023-02-13T09:57:31.050Z,11.00
2023-02-13T10:00:23.874Z,11.63
2023-02-13T10:03:00.295Z,12.23
2023-02-13T10:05:49.913Z,20.60
2023-02-13T10:08:40.740Z,10.53
2023-02-13T10:11:52.588Z,17.47
2023-02-13T10:14:42.700Z,11.00
2023-02-13T10:17:14.865Z,25.63
2023-02-13T10:20:10.515Z,12.67
2023-02-13T10:22:44.936Z,18.60
2023-02-13T10:25:28.140Z,10.00
2023-02-13T10:28:01.343Z,10.00
2023-02-13T10:30:39.946Z,17.47
2023-02-13T10:33:22.076Z,13.87
2023-02-13T10:36:01.688Z,12.47
2023-02-13T10:38:34.303Z,10.63
2023-02-13T10:41:15.693Z,8.73
2023-02-13T10:55:21.092Z,13.23
2023-02-13T10:57:58.472Z,9.63
2023-02-13T11:00:38.359Z,9.10
2023-02-13T11:03:18.102Z,10.97
2023-02-13T11:05:46.677Z,9.60
2023-02-13T11:08:22.233Z,9.37
2023-02-13T11:10:51.056Z,16.57
2023-02-13T11:13:24.535Z,11.17
2023-02-13T11:16:03.659Z,14.90
2023-02-13T11:18:39.390Z,20.10
2023-02-13T11:21:16.910Z,17.47
2023-02-13T11:23:50.639Z,15.57
2023-02-13T11:26:24.358Z,10.67
2023-02-13T11:28:58.449Z,15.60
2023-02-13T11:31:30.543Z,10.57
2023-02-13T11:34:04.073Z,29.50
2023-02-13T11:36:34.239Z,14.30
2023-02-13T11:39:07.760Z,19.00
2023-02-13T11:41:41.910Z,14.97
2023-02-13T11:44:23.663Z,8.77
2023-02-13T11:46:53.837Z,11.43
2023-02-13T11:49:34.234Z,13.83
2023-02-13T11:52:04.698Z,12.37
2023-02-13T11:54:37.224Z,11.88
2023-02-13T11:57:28.996Z,9.10
2023-02-13T12:00:01.301Z,10.90
2023-02-13T12:02:32.395Z,16.47
2023-02-13T12:05:23.662Z,10.80
2023-02-13T12:07:52.501Z,13.33
2023-02-13T12:10:29.478Z,16.23
2023-02-13T12:13:04.377Z,20.40
2023-02-13T12:15:36.306Z,10.53
2023-02-13T12:18:11.338Z,9.43
2023-02-13T12:21:03.840Z,9.83
2023-02-13T12:23:58.423Z,9.20
2023-02-13T12:26:32.901Z,8.87
2023-02-13T12:29:38.797Z,7.37
2023-02-13T12:32:20.522Z,8.77
2023-02-13T12:35:16.297Z,11.27
2023-02-13T12:38:05.395Z,11.93
2023-02-13T12:40:59.758Z,12.57
2023-02-13T12:43:39.012Z,19.17
2023-02-13T12:46:32.114Z,12.30
2023-02-13T12:49:21.160Z,20.03
2023-02-13T12:52:04.217Z,11.67
2023-02-13T12:55:04.114Z,8.47
2023-02-13T12:57:40.780Z,14.10
2023-02-13T13:00:23.955Z,12.30
2023-02-13T13:03:31.209Z,8.53
2023-02-13T13:06:27.994Z,23.10
2023-02-13T13:09:01.908Z,20.03
2023-02-13T13:11:54.079Z,19.03
2023-02-13T13:14:44.414Z,11.97
2023-02-13T13:17:40.743Z,10.73
2023-02-13T13:20:28.951Z,16.10
2023-02-13T13:23:05.146Z,10.93
2023-02-13T13:25:39.023Z,20.57
2023-02-13T13:28:25.419Z,11.30
2023-02-13T13:30:54.302Z,9.97
2023-02-13T13:33:25.206Z,10.10
2023-02-13T13:36:08.312Z,8.83
2023-02-13T13:38:55.339Z,26.40
2023-02-13T13:41:38.225Z,16.67
2023-02-13T13:44:44.024Z,8.07
2023-02-13T13:47:32.602Z,17.67
2023-02-13T13:50:02.471Z,9.90
2023-02-13T13:52:38.120Z,13.30
2023-02-13T13:55:07.989Z,13.87
2023-02-13T13:57:43.397Z,12.13
2023-02-13T14:00:28.440Z,24.67
2023-02-13T14:03:00.040Z,14.20
2023-02-13T14:05:33.113Z,23.77
2023-02-13T14:08:04.581Z,15.20
2023-02-13T14:10:33.298Z,14.00
2023-02-13T14:13:08.118Z,14.47
2023-02-13T14:15:40.027Z,16.57
2023-02-13T14:18:21.157Z,17.50
2023-02-13T14:20:54.403Z,15.63
2023-02-13T14:23:50.581Z,14.97
2023-02-13T14:26:21.224Z,21.10
2023-02-13T14:28:49.865Z,16.00
2023-02-13T14:31:36.184Z,18.93
2023-02-13T14:34:07.623Z,18.30
2023-02-13T14:36:39.257Z,18.30
2023-02-13T14:39:17.118Z,16.60
2023-02-13T14:41:49.623Z,15.90
2023-02-13T14:44:27.664Z,21.13
2023-02-13T14:46:57.116Z,18.87
2023-02-13T14:49:31.220Z,15.60
2023-02-13T14:52:04.743Z,21.27
2023-02-13T14:54:59.348Z,21.37
2023-02-13T14:57:35.483Z,26.30
2023-02-13T15:00:22.630Z,20.90
2023-02-13T15:02:54.750Z,24.50
2023-02-13T15:05:28.740Z,293.17
2023-02-13T15:08:07.543Z,601.43
2023-02-13T15:10:47.345Z,364.40
2023-02-13T15:13:22.923Z,169.27
2023-02-13T15:16:00.026Z,116.40
2023-02-13T15:18:36.041Z,28.83
2023-02-13T15:21:04.273Z,18.03
2023-02-13T15:23:33.603Z,14.73
2023-02-13T15:26:06.265Z,12.73
2023-02-13T15:28:36.452Z,19.53
2023-02-13T15:31:22.847Z,13.57
2023-02-13T15:33:52.129Z,14.87
2023-02-13T15:36:23.357Z,12.03
2023-02-13T15:39:09.654Z,9.23
2023-02-13T15:41:41.155Z,15.40
2023-02-13T15:44:18.704Z,12.13
2023-02-13T15:46:49.075Z,12.20
2023-02-13T15:49:25.648Z,12.53
2023-02-13T15:52:09.421Z,14.30
2023-02-13T15:54:37.362Z,19.10
2023-02-13T15:57:12.923Z,12.40
2023-02-13T15:59:41.454Z,12.77
2023-02-13T16:02:19.810Z,11.33
2023-02-13T16:04:51.164Z,15.37
2023-02-13T16:07:57.916Z,16.73
2023-02-13T16:10:34.609Z,16.87
2023-02-13T16:13:07.478Z,19.93
2023-02-13T16:15:48.358Z,15.50
2023-02-13T16:18:20.810Z,14.67
2023-02-13T16:20:54.560Z,15.73
2023-02-13T16:23:25.270Z,20.13
2023-02-13T16:26:02.752Z,20.97
2023-02-13T16:28:33.366Z,17.33
2023-02-13T16:31:06.017Z,21.73
2023-02-13T16:33:36.725Z,20.80
2023-02-13T16:36:14.206Z,13.77
2023-02-13T16:38:50.138Z,16.63
2023-02-13T16:41:29.047Z,17.17
2023-02-13T16:44:03.860Z,16.57
2023-02-13T16:46:39.204Z,13.20
2023-02-13T16:49:10.272Z,25.33
2023-02-13T16:51:52.098Z,16.77
2023-02-13T16:54:30.279Z,20.77
2023-02-13T16:57:24.244Z,21.50
2023-02-13T17:00:00.390Z,21.37
2023-02-13T17:02:32.609Z,16.07
2023-02-13T17:05:22.534Z,21.73
2023-02-13T17:07:57.508Z,21.73
2023-02-13T17:10:39.551Z,19.70
2023-02-13T17:13:13.456Z,21.07
2023-02-13T17:15:46.666Z,17.27
2023-02-13T17:18:17.383Z,16.87
2023-02-13T17:20:46.219Z,16.93
2023-02-13T17:23:22.986Z,16.33
2023-02-13T17:25:54.217Z,17.47
2023-02-13T17:28:25.466Z,16.07
2023-02-13T17:30:56.964Z,18.80
2023-02-13T17:33:30.253Z,17.23
2023-02-13T17:36:01.359Z,17.53
2023-02-13T17:38:34.104Z,17.07
2023-02-13T17:41:02.972Z,16.90
2023-02-13T17:43:31.728Z,15.17
2023-02-13T17:46:02.320Z,14.10
2023-02-13T17:48:30.892Z,13.47
2023-02-13T17:51:00.614Z,15.70
2023-02-13T17:53:30.744Z,12.53
2023-02-13T17:56:02.249Z,18.33
2023-02-13T17:58:31.294Z,13.97
2023-02-13T18:01:02.188Z,26.03
2023-02-13T18:03:30.809Z,17.30
2023-02-13T18:06:02.239Z,15.23
2023-02-13T18:08:30.760Z,15.73
2023-02-13T18:11:01.918Z,14.53
2023-02-13T18:13:30.463Z,14.80
2023-02-13T18:15:58.675Z,15.00
2023-02-13T18:18:28.005Z,13.73
2023-02-13T18:20:57.497Z,15.57
2023-02-13T18:23:29.841Z,15.80
2023-02-13T18:26:10.374Z,16.30
2023-02-13T18:28:38.955Z,19.00
2023-02-13T18:31:10.251Z,17.40
2023-02-13T18:33:38.455Z,16.60
2023-02-13T18:36:06.946Z,16.77
2023-02-13T18:38:35.204Z,17.77
2023-02-13T18:41:04.201Z,18.83
2023-02-13T18:43:32.954Z,15.60
2023-02-13T18:46:06.981Z,18.13
2023-02-13T18:48:39.737Z,20.00
2023-02-13T18:51:10.342Z,22.00
2023-02-13T18:53:38.549Z,25.97
2023-02-13T18:56:08.266Z,21.17
2023-02-13T18:58:37.429Z,21.47
2023-02-13T19:01:14.767Z,22.00
2023-02-13T19:03:43.093Z,22.13
2023-02-13T19:06:14.105Z,22.87
2023-02-13T19:08:44.043Z,26.33
2023-02-13T19:11:17.438Z,20.93
2023-02-13T19:13:47.777Z,22.70
2023-02-13T19:16:18.024Z,21.17
2023-02-13T19:18:48.816Z,23.40
2023-02-13T19:21:17.659Z,23.77
2023-02-13T19:23:49.969Z,21.13
2023-02-13T19:26:21.034Z,21.43
2023-02-13T19:28:49.468Z,21.97
2023-02-13T19:31:27.274Z,20.50
2023-02-13T19:33:56.370Z,22.77
2023-02-13T19:36:27.142Z,24.20
2023-02-13T19:39:17.517Z,23.13
2023-02-13T19:41:45.616Z,19.93
2023-02-13T19:44:14.194Z,25.73
2023-02-13T19:46:42.713Z,22.30
2023-02-13T19:49:11.600Z,26.33
2023-02-13T19:51:43.048Z,24.07
2023-02-13T19:54:11.910Z,24.37
2023-02-13T19:56:42.340Z,25.07
2023-02-13T19:59:14.372Z,21.83
2023-02-13T20:01:46.062Z,18.43
2023-02-13T20:04:15.905Z,18.53
2023-02-13T20:06:44.779Z,19.83
2023-02-13T20:09:14.940Z,20.77
2023-02-13T20:11:44.359Z,39.13
2023-02-13T20:14:15.312Z,29.80
2023-02-13T20:16:46.650Z,24.30
2023-02-13T20:19:17.160Z,22.07
2023-02-13T20:21:47.318Z,22.20
2023-02-13T20:24:16.586Z,21.33
2023-02-13T20:26:47.155Z,20.37
2023-02-13T20:29:16.151Z,22.20
2023-02-13T20:31:45.041Z,22.40
2023-02-13T20:34:13.347Z,21.50
2023-02-13T20:36:44.125Z,24.13
2023-02-13T20:39:12.533Z,27.43
2023-02-13T20:41:41.471Z,24.03
2023-02-13T20:44:12.392Z,27.00
2023-02-13T20:46:41.007Z,28.03
2023-02-13T20:49:11.726Z,26.23
2023-02-13T20:51:40.171Z,24.03
2023-02-13T20:54:08.765Z,25.97
2023-02-13T20:56:37.652Z,24.77
2023-02-13T20:59:05.866Z,24.93
2023-02-13T21:01:41.722Z,23.37
2023-02-13T21:04:14.058Z,23.10
2023-02-13T21:06:42.434Z,28.17
2023-02-13T21:09:10.790Z,33.27
2023-02-13T21:11:43.616Z,22.37
2023-02-13T21:14:12.946Z,24.70
2023-02-13T21:16:43.129Z,20.40
2023-02-13T21:19:19.784Z,23.07
2023-02-13T21:21:48.459Z,22.87
2023-02-13T21:24:20.220Z,21.90
2023-02-13T21:26:52.828Z,22.07
2023-02-13T21:29:21.636Z,23.13
2023-02-13T21:31:51.543Z,25.07
2023-02-13T21:34:20.541Z,24.60
2023-02-13T21:36:50.702Z,22.67
2023-02-13T21:39:19.212Z,25.33
2023-02-13T21:41:47.734Z,26.57
2023-02-13T21:44:17.165Z,23.83
2023-02-13T21:46:46.041Z,24.67
2023-02-13T21:49:17.166Z,25.33
2023-02-13T21:51:45.935Z,24.07
2023-02-13T21:54:34.752Z,24.37
2023-02-13T21:57:03.758Z,24.00
2023-02-13T21:59:33.680Z,29.27
2023-02-13T22:02:03.130Z,22.17
2023-02-13T22:04:34.607Z,21.77
2023-02-13T22:07:02.721Z,24.13
2023-02-13T22:09:31.046Z,25.43
2023-02-13T22:11:59.069Z,24.67
2023-02-13T22:14:28.013Z,27.30
2023-02-13T22:16:56.179Z,23.97
2023-02-13T22:19:26.643Z,24.53
2023-02-13T22:21:55.459Z,23.63
2023-02-13T22:24:24.032Z,23.43
2023-02-13T22:26:52.381Z,25.17
2023-02-13T22:29:23.435Z,22.50
2023-02-13T22:31:54.729Z,23.50
2023-02-13T22:34:23.044Z,23.23
2023-02-13T22:36:51.901Z,23.97
2023-02-13T22:39:20.184Z,21.60
2023-02-13T22:41:50.219Z,20.20
2023-02-13T22:44:18.912Z,23.33
2023-02-13T22:46:47.109Z,18.97
2023-02-13T22:49:15.898Z,22.93
2023-02-13T22:51:45.397Z,20.20
2023-02-13T22:54:13.955Z,21.03
2023-02-13T22:56:42.944Z,19.73
2023-02-13T22:59:14.595Z,19.70
2023-02-13T23:01:43.052Z,29.87
2023-02-13T23:04:12.701Z,25.07
2023-02-13T23:06:43.697Z,16.70
2023-02-13T23:09:12.298Z,18.87
2023-02-13T23:11:59.082Z,18.67
2023-02-13T23:14:27.671Z,15.53
2023-02-13T23:17:14.812Z,16.37
2023-02-13T23:19:43.856Z,18.87
2023-02-13T23:22:16.716Z,17.47
2023-02-13T23:24:45.000Z,16.27
2023-02-13T23:27:13.382Z,14.80
2023-02-13T23:29:42.879Z,17.13
2023-02-13T23:32:11.478Z,18.63
2023-02-13T23:34:39.723Z,13.63
2023-02-13T23:37:07.652Z,15.30
2023-02-13T23:39:36.018Z,16.63
2023-02-13T23:42:04.444Z,16.00
2023-02-13T23:44:34.415Z,17.30
2023-02-13T23:47:03.825Z,16.93
2023-02-13T23:49:35.091Z,15.90
2023-02-13T23:52:03.154Z,15.50
2023-02-13T23:54:31.243Z,15.93
2023-02-13T23:56:59.777Z,15.27
2023-02-13T23:59:28.285Z,16.97
